Time;durP1;ratioP1;P1;durP2;ratioP2;P2;SDS_P1;SDS_P2;PMS_P1;PMS_P2;Temp;Humidity;BMP_temperature;BMP_pressure;BME280_temperature;BME280_humidity;BME280_pressure;Samples;Min_cycle;Max_cycle;Signal;HPM_P1;HPM_P2
2021/04/29 00:02:05;;;;;;;11.00;7.50;;;;;;;6.86;69.49;99567.84;4969845;28;20198;-72
2021/04/29 00:04:31;;;;;;;11.43;7.03;;;;;;;6.81;69.73;99566.25;4966730;28;20202;-71
2021/04/29 00:06:57;;;;;;;9.53;7.10;;;;;;;6.77;69.49;99556.00;4965374;28;20202;-71
2021/04/29 00:09:23;;;;;;;9.17;7.20;;;;;;;6.80;69.80;99550.72;4965856;28;20961;-71
2021/04/29 00:11:51;;;;;;;10.03;6.23;;;;;;;6.80;70.11;99551.56;4970170;28;20198;-71
2021/04/29 00:14:18;;;;;;;10.87;7.37;;;;;;;6.77;69.44;99561.19;4970283;28;20586;-71
2021/04/29 00:16:44;;;;;;;10.73;6.87;;;;;;;6.71;70.06;99553.59;4974541;28;20268;-71
2021/04/29 00:19:10;;;;;;;9.30;7.10;;;;;;;6.67;70.41;99563.19;4970704;28;20308;-71
2021/04/29 00:21:37;;;;;;;11.23;7.10;;;;;;;6.61;71.15;99558.16;4969317;28;20202;-71
2021/04/29 00:24:03;;;;;;;10.93;6.80;;;;;;;6.55;72.36;99553.16;4968226;28;20745;-71
2021/04/29 00:26:29;;;;;;;8.80;6.27;;;;;;;6.52;71.95;99558.41;4970386;28;20210;-71
2021/04/29 00:28:55;;;;;;;12.47;7.47;;;;;;;6.48;72.13;99549.03;4967425;28;20688;-71
2021/04/29 00:31:22;;;;;;;10.47;7.10;;;;;;;6.42;71.98;99553.47;4962765;28;20198;-71
2021/04/29 00:33:48;;;;;;;11.07;6.83;;;;;;;6.40;72.67;99560.44;4962029;28;20524;-71
2021/04/29 00:36:14;;;;;;;12.20;7.93;;;;;;;6.37;73.06;99557.09;4968896;28;20233;-71
2021/04/29 00:38:40;;;;;;;10.87;6.87;;;;;;;6.31;73.26;99552.88;4968842;28;20224;-71
2021/04/29 00:41:07;;;;;;;12.70;7.03;;;;;;;6.29;73.59;99556.41;4971714;28;20221;-71
2021/04/29 00:43:33;;;;;;;8.97;6.67;;;;;;;6.24;74.34;99559.97;4969900;28;20198;-71
2021/04/29 00:45:59;;;;;;;11.67;7.43;;;;;;;6.20;74.20;99553.16;4964381;28;20701;-72
2021/04/29 00:48:26;;;;;;;9.83;6.70;;;;;;;6.16;74.01;99554.13;4970807;28;20213;-71
2021/04/29 00:50:52;;;;;;;11.00;7.27;;;;;;;6.15;74.19;99551.59;4972147;28;20263;-71
2021/04/29 00:53:18;;;;;;;8.43;6.07;;;;;;;6.17;74.80;99552.38;4970258;28;20261;-72
2021/04/29 00:55:44;;;;;;;10.20;7.33;;;;;;;6.17;74.45;99547.22;4962445;28;20610;-72
2021/04/29 00:58:10;;;;;;;8.50;6.50;;;;;;;6.19;74.78;99553.19;4968148;28;20206;-71
2021/04/29 01:00:38;;;;;;;9.83;6.77;;;;;;;6.20;75.35;99550.56;4971113;28;20201;-71
2021/04/29 01:03:11;;;;;;;11.57;7.07;;;;;;;6.21;74.81;99547.13;4964342;28;20194;-72
2021/04/29 01:05:44;;;;;;;11.53;7.07;;;;;;;6.23;75.15;99550.50;4964424;28;20203;-71
2021/04/29 01:08:14;;;;;;;13.07;7.00;;;;;;;6.26;75.55;99552.16;4965876;28;20213;-72
2021/04/29 01:10:45;;;;;;;11.63;7.23;;;;;;;6.29;75.85;99546.06;4969535;28;20209;-72
2021/04/29 01:13:13;;;;;;;10.63;6.57;;;;;;;6.30;76.50;99552.91;4966658;28;20225;-72
2021/04/29 01:15:41;;;;;;;10.50;7.63;;;;;;;6.30;75.76;99546.03;4968355;28;20305;-72
2021/04/29 01:18:09;;;;;;;11.43;7.67;;;;;;;6.33;75.95;99540.78;4968245;28;20225;-71
2021/04/29 01:20:45;;;;;;;10.53;7.03;;;;;;;6.35;76.04;99544.16;4970131;28;20279;-71
2021/04/29 01:23:15;;;;;;;10.93;7.10;;;;;;;6.37;76.21;99546.72;4966241;28;20293;-72
2021/04/29 01:25:46;;;;;;;11.10;7.00;;;;;;;6.38;75.97;99546.66;4968094;28;20579;-71
2021/04/29 01:28:13;;;;;;;11.53;6.63;;;;;;;6.41;76.42;99545.75;4971630;28;20646;-71
2021/04/29 01:30:41;;;;;;;10.73;7.43;;;;;;;6.40;76.04;99550.09;4968785;28;20239;-71
2021/04/29 01:33:07;;;;;;;10.57;7.37;;;;;;;6.42;75.81;99543.13;4967133;28;20217;-71
2021/04/29 01:35:33;;;;;;;9.97;6.97;;;;;;;6.45;76.27;99537.00;4968687;28;20210;-72
2021/04/29 01:38:00;;;;;;;10.97;7.17;;;;;;;6.50;76.41;99534.28;4970066;28;20210;-71
2021/04/29 01:40:26;;;;;;;13.73;7.77;;;;;;;6.52;75.79;99528.16;4966780;28;20225;-71
2021/04/29 01:42:52;;;;;;;12.50;8.57;;;;;;;6.54;76.03;99528.97;4966607;28;20205;-72
2021/04/29 01:45:19;;;;;;;13.93;8.80;;;;;;;6.54;75.92;99523.78;4968641;28;20664;-72
2021/04/29 01:47:45;;;;;;;15.87;10.10;;;;;;;6.55;76.03;99524.66;4968650;28;20201;-71
2021/04/29 01:50:12;;;;;;;19.93;11.00;;;;;;;6.56;76.20;99516.00;4971125;28;20583;-72
2021/04/29 01:52:38;;;;;;;18.73;10.57;;;;;;;6.56;76.00;99514.28;4968177;28;20217;-72
2021/04/29 01:55:07;;;;;;;14.23;10.30;;;;;;;6.57;76.27;99512.53;4962745;28;20206;-71
2021/04/29 01:57:33;;;;;;;15.90;10.47;;;;;;;6.56;76.36;99503.91;4967909;28;20197;-71
2021/04/29 01:59:59;;;;;;;14.67;9.97;;;;;;;6.57;76.20;99508.19;4962923;28;20229;-71
2021/04/29 02:02:27;;;;;;;12.57;8.67;;;;;;;6.58;76.83;99507.31;4969027;28;20745;-71
2021/04/29 02:04:53;;;;;;;11.63;8.57;;;;;;;6.58;76.54;99512.47;4969860;28;20647;-71
2021/04/29 02:07:19;;;;;;;10.67;7.80;;;;;;;6.59;77.02;99508.97;4971797;28;20675;-71
2021/04/29 02:09:45;;;;;;;11.27;7.70;;;;;;;6.60;77.34;99505.50;4967441;28;20241;-71
2021/04/29 02:12:12;;;;;;;13.37;7.57;;;;;;;6.61;77.12;99498.59;4964801;28;20205;-71
2021/04/29 02:14:42;;;;;;;10.43;7.13;;;;;;;6.62;77.31;99490.78;4963774;28;20229;-71
2021/04/29 02:17:11;;;;;;;11.80;8.10;;;;;;;6.68;77.60;99489.75;4968487;28;20194;-72
2021/04/29 02:19:40;;;;;;;10.73;7.03;;;;;;;6.69;77.48;99482.84;4967301;28;20646;-71
2021/04/29 02:22:07;;;;;;;11.77;7.53;;;;;;;6.71;77.77;99481.91;4967577;28;20198;-71
2021/04/29 02:24:34;;;;;;;9.57;6.97;;;;;;;6.74;77.83;99487.00;4967640;28;20636;-71
2021/04/29 02:27:01;;;;;;;10.20;7.73;;;;;;;6.77;77.65;99478.28;4963599;28;20686;-71
2021/04/29 02:29:28;;;;;;;8.60;7.40;;;;;;;6.79;77.41;99476.50;4966894;28;20230;-71
2021/04/29 02:31:55;;;;;;;11.73;7.43;;;;;;;6.80;77.76;99471.25;4960261;28;20209;-72
2021/04/29 02:34:21;;;;;;;12.30;7.10;;;;;;;6.82;77.65;99472.09;4967923;28;20216;-72
2021/04/29 02:36:48;;;;;;;9.80;7.40;;;;;;;6.83;77.70;99465.16;4966864;28;20583;-72
2021/04/29 02:39:14;;;;;;;10.10;6.80;;;;;;;6.83;77.34;99468.59;4970766;28;20303;-72
2021/04/29 02:41:41;;;;;;;12.97;7.20;;;;;;;6.85;77.70;99468.53;4967435;28;20248;-71
2021/04/29 02:44:07;;;;;;;10.00;6.73;;;;;;;6.86;77.67;99467.66;4966302;28;20213;-71
2021/04/29 02:46:33;;;;;;;12.20;7.70;;;;;;;6.87;77.71;99463.31;4966461;28;20194;-71
2021/04/29 02:49:00;;;;;;;10.13;7.63;;;;;;;6.89;78.13;99454.59;4967835;28;20245;-71
2021/04/29 02:51:27;;;;;;;12.10;7.87;;;;;;;6.92;77.77;99453.69;4968753;28;20202;-72
2021/04/29 02:53:53;;;;;;;9.47;7.37;;;;;;;6.94;77.77;99451.88;4967284;28;20290;-71
2021/04/29 02:56:19;;;;;;;13.33;7.37;;;;;;;7.00;77.71;99452.56;4970541;28;20213;-71
2021/04/29 02:58:46;;;;;;;9.30;6.90;;;;;;;7.05;77.48;99447.22;4967150;28;20315;-72
2021/04/29 03:01:13;;;;;;;11.07;7.73;;;;;;;7.09;77.63;99455.75;4966215;28;20194;-71
2021/04/29 03:03:39;;;;;;;8.83;6.90;;;;;;;7.09;77.57;99447.97;4965302;28;20671;-72
2021/04/29 03:06:06;;;;;;;9.33;7.00;;;;;;;7.10;77.44;99447.06;4971138;28;20574;-71
2021/04/29 03:08:32;;;;;;;10.10;6.77;;;;;;;7.13;77.49;99444.41;4966684;28;20310;-72
2021/04/29 03:10:59;;;;;;;10.43;7.07;;;;;;;7.20;77.60;99440.72;4966376;28;20198;-71
2021/04/29 03:13:25;;;;;;;7.93;6.17;;;;;;;7.28;77.35;99445.66;4967556;28;20229;-71
2021/04/29 03:15:51;;;;;;;9.00;7.03;;;;;;;7.33;77.32;99444.59;4963028;28;20283;-71
2021/04/29 03:18:17;;;;;;;11.00;6.90;;;;;;;7.38;77.12;99452.25;4967132;28;20206;-72
2021/04/29 03:20:43;;;;;;;10.23;7.03;;;;;;;7.42;76.92;99447.81;4965695;28;20206;-71
2021/04/29 03:23:10;;;;;;;8.83;6.83;;;;;;;7.42;76.95;99437.44;4962843;28;20266;-72
2021/04/29 03:25:36;;;;;;;8.30;6.40;;;;;;;7.42;77.08;99432.25;4963634;28;20250;-71
2021/04/29 03:28:03;;;;;;;9.07;6.83;;;;;;;7.46;77.15;99433.84;4967383;28;20261;-72
2021/04/29 03:30:30;;;;;;;8.93;6.57;;;;;;;7.47;77.10;99433.78;4966650;28;20609;-71
2021/04/29 03:32:56;;;;;;;8.40;6.60;;;;;;;7.46;77.05;99429.53;4959603;28;20217;-72
2021/04/29 03:35:22;;;;;;;10.83;7.60;;;;;;;7.47;77.02;99436.38;4964638;28;20202;-72
2021/04/29 03:37:48;;;;;;;8.63;6.43;;;;;;;7.46;77.28;99429.53;4966641;28;20194;-72
2021/04/29 03:40:15;;;;;;;10.23;6.57;;;;;;;7.46;77.04;99429.53;4969143;28;20321;-72
2021/04/29 03:42:41;;;;;;;11.70;7.73;;;;;;;7.49;77.06;99425.97;4967435;28;20250;-72
2021/04/29 03:45:09;;;;;;;10.03;6.63;;;;;;;7.49;77.04;99420.78;4969167;28;20206;-72
2021/04/29 03:47:35;;;;;;;10.27;6.63;;;;;;;7.53;76.74;99422.41;4966984;28;20205;-72
2021/04/29 03:50:01;;;;;;;10.40;6.73;;;;;;;7.57;76.50;99419.63;4970493;28;20222;-72
2021/04/29 03:52:34;;;;;;;8.53;6.60;;;;;;;7.58;76.46;99413.56;4970251;28;20211;-71
2021/04/29 03:55:00;;;;;;;11.67;7.17;;;;;;;7.63;76.49;99423.78;4967094;28;20198;-72
2021/04/29 03:57:26;;;;;;;10.40;7.07;;;;;;;7.68;75.96;99427.06;4969365;28;20209;-72
2021/04/29 03:59:52;;;;;;;11.07;6.73;;;;;;;7.71;75.59;99419.19;4970227;28;20217;-72
2021/04/29 04:06:06;;;;;;;7.77;5.97;;;;;;;7.80;75.71;99431.00;4964937;28;20245;-72
2021/04/29 04:08:32;;;;;;;8.97;6.90;;;;;;;7.83;75.87;99424.84;4962514;28;20238;-72
2021/04/29 04:10:58;;;;;;;9.83;6.30;;;;;;;7.85;75.39;99430.84;4967447;28;20213;-72
2021/04/29 04:13:29;;;;;;;9.70;6.87;;;;;;;7.89;75.05;99432.44;4967773;28;20246;-71
2021/04/29 04:15:55;;;;;;;10.13;6.63;;;;;;;7.91;75.67;99436.66;4972389;28;20213;-72
2021/04/29 04:18:21;;;;;;;10.27;6.70;;;;;;;7.92;75.48;99447.91;4970216;28;20289;-71
2021/04/29 04:20:47;;;;;;;7.63;6.30;;;;;;;7.94;75.18;99451.28;4969329;28;20244;-72
2021/04/29 04:23:17;;;;;;;8.73;6.40;;;;;;;7.96;75.09;99449.50;4969791;28;20194;-72
2021/04/29 04:25:43;;;;;;;9.17;6.17;;;;;;;8.00;75.64;99448.47;4966915;28;20207;-71
2021/04/29 04:28:09;;;;;;;10.47;6.60;;;;;;;8.03;77.81;99450.13;4968339;28;20296;-72
2021/04/29 04:30:35;;;;;;;9.03;6.87;;;;;;;8.06;78.89;99452.63;4965005;28;20215;-71
2021/04/29 04:33:01;;;;;;;10.13;7.00;;;;;;;8.08;79.94;99448.22;4970077;28;20244;-71
2021/04/29 04:35:27;;;;;;;7.40;6.50;;;;;;;8.10;80.64;99449.84;4965570;28;20206;-72
2021/04/29 04:37:53;;;;;;;9.57;7.13;;;;;;;8.13;81.56;99446.31;4968612;28;20213;-71
2021/04/29 04:40:20;;;;;;;8.70;6.00;;;;;;;8.19;81.33;99440.91;4956621;28;20277;-71
2021/04/29 04:42:46;;;;;;;9.43;5.77;;;;;;;8.23;82.48;99436.44;4967075;28;20624;-72
2021/04/29 04:45:12;;;;;;;10.37;6.30;;;;;;;8.25;82.71;99440.69;4966096;28;20234;-72
2021/04/29 04:47:39;;;;;;;9.60;6.13;;;;;;;8.29;83.29;99442.28;4966703;28;20201;-71
2021/04/29 04:50:07;;;;;;;8.87;6.33;;;;;;;8.31;83.32;99445.66;4967929;28;20263;-71
2021/04/29 04:52:32;;;;;;;7.50;6.07;;;;;;;8.35;82.48;99443.81;4966900;28;20202;-71
2021/04/29 04:54:58;;;;;;;9.70;7.10;;;;;;;8.39;83.08;99445.41;4965629;28;20244;-71
2021/04/29 04:57:25;;;;;;;9.00;6.30;;;;;;;8.43;83.33;99439.22;4967699;28;20209;-71
2021/04/29 04:59:51;;;;;;;8.03;6.17;;;;;;;8.47;84.00;99437.34;4967782;28;20222;-71
2021/04/29 05:02:17;;;;;;;9.10;5.90;;;;;;;8.49;83.52;99445.94;4966873;28;20544;-71
2021/04/29 05:08:31;;;;;;;8.70;6.13;;;;;;;8.50;84.76;99448.47;4965084;28;20213;-71
2021/04/29 05:10:57;;;;;;;7.90;5.70;;;;;;;8.53;84.44;99448.38;4967817;28;20213;-72
2021/04/29 05:14:13;;;;;;;8.97;6.50;;;;;;;8.53;85.55;99461.38;4960549;22;20254;-71
2021/04/29 05:16:43;;;;;;;8.53;5.60;;;;;;;8.53;85.07;99458.78;4969698;23;20221;-72
2021/04/29 05:19:10;;;;;;;7.90;5.27;;;;;;;8.52;85.49;99457.06;4982038;28;20182;-72
2021/04/29 05:21:36;;;;;;;9.60;6.33;;;;;;;8.55;86.10;99470.84;4981356;28;20228;-72
2021/04/29 05:24:03;;;;;;;10.17;5.87;;;;;;;8.53;86.83;99481.28;4982986;28;20236;-72
2021/04/29 05:26:29;;;;;;;14.17;8.30;;;;;;;8.52;87.02;99477.84;4986821;28;20237;-72
2021/04/29 05:28:55;;;;;;;11.67;7.40;;;;;;;8.53;86.65;99486.47;4973246;28;20834;-71
2021/04/29 05:31:21;;;;;;;11.07;6.90;;;;;;;8.50;87.53;99486.63;4976793;28;20205;-71
2021/04/29 05:33:47;;;;;;;9.00;6.80;;;;;;;8.49;88.30;99493.53;4975957;28;20226;-72
2021/04/29 05:36:13;;;;;;;10.63;6.47;;;;;;;8.49;88.85;99487.50;4978760;28;20233;-71
2021/04/29 05:38:40;;;;;;;9.40;6.47;;;;;;;8.48;88.29;99494.47;4978840;28;20205;-71
2021/04/29 05:41:05;;;;;;;9.20;6.43;;;;;;;8.49;89.51;99490.09;4980763;28;20260;-71
2021/04/29 05:43:32;;;;;;;9.33;6.57;;;;;;;8.49;89.74;99485.75;4978341;28;20218;-71
2021/04/29 05:45:57;;;;;;;12.97;9.20;;;;;;;8.51;89.91;99483.97;4979575;28;20218;-71
2021/04/29 05:48:24;;;;;;;17.67;9.90;;;;;;;8.52;90.59;99477.84;4978222;28;20288;-71
2021/04/29 05:50:51;;;;;;;10.53;7.20;;;;;;;8.52;90.53;99485.66;4974181;28;20209;-71
2021/04/29 05:53:16;;;;;;;12.00;9.47;;;;;;;8.54;91.13;99480.41;4977744;28;20219;-71
2021/04/29 05:55:42;;;;;;;14.63;10.70;;;;;;;8.55;92.01;99483.84;4977134;28;20242;-71
2021/04/29 05:58:08;;;;;;;12.60;8.50;;;;;;;8.55;91.70;99486.44;4970926;28;20247;-72
2021/04/29 06:00:37;;;;;;;10.20;8.10;;;;;;;8.56;91.54;99480.34;4974378;28;20622;-71
2021/04/29 06:03:03;;;;;;;12.63;8.80;;;;;;;8.58;91.43;99481.97;4984223;28;20280;-73
2021/04/29 06:05:29;;;;;;;9.37;7.40;;;;;;;8.58;91.61;99476.78;4981347;28;20302;-72
2021/04/29 06:07:56;;;;;;;11.87;7.23;;;;;;;8.58;92.29;99474.19;4978743;28;20189;-73
2021/04/29 06:10:23;;;;;;;8.63;6.73;;;;;;;8.59;92.43;99473.28;4981190;28;20259;-70
2021/04/29 06:12:50;;;;;;;10.67;7.37;;;;;;;8.59;93.29;99478.47;4979387;28;20213;-72
2021/04/29 06:15:17;;;;;;;11.13;7.33;;;;;;;8.60;92.82;99474.13;4982593;28;20226;-71
2021/04/29 06:17:43;;;;;;;11.10;7.40;;;;;;;8.59;93.51;99481.09;4976435;28;20197;-71
2021/04/29 06:20:10;;;;;;;8.57;6.93;;;;;;;8.59;93.81;99480.25;4987589;28;20225;-71
2021/04/29 06:22:36;;;;;;;11.20;7.53;;;;;;;8.59;94.20;99478.47;4978189;28;20221;-73
2021/04/29 06:25:03;;;;;;;10.70;7.57;;;;;;;8.60;94.36;99475.00;4975927;28;20242;-73
2021/04/29 06:27:29;;;;;;;10.63;8.00;;;;;;;8.62;94.89;99475.78;4977705;28;20233;-71
2021/04/29 06:29:55;;;;;;;10.57;7.67;;;;;;;8.63;95.85;99468.81;4979194;28;20245;-72
2021/04/29 06:32:21;;;;;;;9.17;7.37;;;;;;;8.63;94.92;99463.63;4981181;28;20222;-73
2021/04/29 06:34:47;;;;;;;11.40;7.37;;;;;;;8.63;95.16;99461.03;4978539;28;20284;-73
2021/04/29 06:37:13;;;;;;;11.33;7.13;;;;;;;8.62;94.87;99456.72;4974101;28;20249;-72
2021/04/29 06:39:40;;;;;;;10.93;7.53;;;;;;;8.63;94.92;99461.03;4981335;28;20630;-72
2021/04/29 06:42:07;;;;;;;12.47;7.63;;;;;;;8.61;95.43;99457.66;4976705;28;20202;-73
2021/04/29 06:44:33;;;;;;;11.80;7.73;;;;;;;8.62;95.87;99456.72;4981274;28;20204;-72
2021/04/29 06:46:59;;;;;;;11.30;8.07;;;;;;;8.61;96.15;99455.88;4981896;28;20246;-73
2021/04/29 06:49:25;;;;;;;13.93;8.33;;;;;;;8.60;96.46;99450.75;4976926;28;20224;-73
2021/04/29 06:51:51;;;;;;;11.30;7.73;;;;;;;8.62;96.60;99455.00;4979035;28;20209;-73
2021/04/29 06:54:17;;;;;;;13.90;8.33;;;;;;;8.63;96.43;99458.44;4980077;28;20693;-73
2021/04/29 06:56:43;;;;;;;13.93;8.10;;;;;;;8.65;96.48;99469.59;4982011;28;20217;-73
2021/04/29 06:59:10;;;;;;;10.57;8.13;;;;;;;8.63;97.20;99472.25;4976797;28;20284;-73
2021/04/29 07:01:36;;;;;;;11.10;7.77;;;;;;;8.65;97.43;99474.81;4975989;28;20210;-71
2021/04/29 07:04:03;;;;;;;13.83;9.13;;;;;;;8.65;97.38;99490.41;4982307;28;20202;-71
2021/04/29 07:06:29;;;;;;;15.57;10.50;;;;;;;8.64;98.42;99505.16;4981471;28;20218;-73
2021/04/29 07:08:56;;;;;;;29.73;16.53;;;;;;;8.59;99.40;99501.03;4977231;28;20614;-73
2021/04/29 07:11:22;;;;;;;22.57;13.73;;;;;;;8.59;99.54;99496.66;4978549;28;21343;-72
2021/04/29 07:13:48;;;;;;;18.67;11.57;;;;;;;8.63;99.34;99503.44;4977654;28;20219;-73
2021/04/29 07:16:15;;;;;;;12.23;9.07;;;;;;;8.66;99.95;99505.09;4981347;28;20629;-73
2021/04/29 07:18:41;;;;;;;11.67;8.70;;;;;;;8.68;100.00;99511.91;4982619;28;20197;-72
2021/04/29 07:21:07;;;;;;;12.17;9.50;;;;;;;8.69;100.00;99516.22;4981429;28;20661;-73
2021/04/29 07:23:33;;;;;;;13.80;9.23;;;;;;;8.70;100.00;99509.28;4977844;28;20221;-73
2021/04/29 07:25:59;;;;;;;12.30;9.03;;;;;;;8.73;100.00;99516.13;4983337;28;20215;-73
2021/04/29 07:28:27;;;;;;;10.67;8.97;;;;;;;8.72;100.00;99517.84;4978251;28;20197;-72
2021/04/29 07:30:53;;;;;;;11.30;8.90;;;;;;;8.74;100.00;99516.03;4981094;28;20543;-72
2021/04/29 07:33:20;;;;;;;14.10;9.00;;;;;;;8.76;100.00;99514.25;4978545;28;20990;-72
2021/04/29 07:35:46;;;;;;;16.33;9.17;;;;;;;8.80;100.00;99513.25;4980492;28;20225;-73
2021/04/29 07:38:13;;;;;;;12.60;9.20;;;;;;;8.85;100.00;99511.31;4971181;28;20277;-73
2021/04/29 07:40:39;;;;;;;11.97;8.90;;;;;;;8.89;100.00;99505.09;4980479;28;20205;-71
2021/04/29 07:43:05;;;;;;;12.80;8.80;;;;;;;8.94;100.00;99507.53;4963441;28;20208;-73
2021/04/29 07:45:33;;;;;;;12.53;9.70;;;;;;;9.00;100.00;99504.69;4982065;28;20224;-73
2021/04/29 07:47:59;;;;;;;14.17;9.27;;;;;;;9.02;100.00;99505.50;4978549;28;20338;-73
2021/04/29 07:50:27;;;;;;;12.07;8.67;;;;;;;9.09;100.00;99506.09;4980567;28;20208;-73
2021/04/29 07:52:53;;;;;;;14.07;9.43;;;;;;;9.14;100.00;99509.38;4973090;28;20215;-73
2021/04/29 07:55:19;;;;;;;12.03;9.73;;;;;;;9.21;100.00;99504.78;4979174;28;20298;-72
2021/04/29 07:57:45;;;;;;;14.00;10.00;;;;;;;9.28;100.00;99509.69;4982376;28;20592;-73
2021/04/29 08:00:14;;;;;;;13.40;9.63;;;;;;;9.38;100.00;99506.75;4983619;28;20199;-74
2021/04/29 08:02:41;;;;;;;15.63;10.67;;;;;;;9.48;100.00;99510.69;4980123;28;20201;-70
2021/04/29 08:05:08;;;;;;;16.57;11.17;;;;;;;9.58;100.00;99498.16;4975844;28;20718;-73
2021/04/29 08:07:35;;;;;;;16.50;10.57;;;;;;;9.72;100.00;99502.81;4981502;28;20939;-74
2021/04/29 08:10:01;;;;;;;19.23;11.17;;;;;;;9.84;100.00;99502.31;4982546;28;20200;-72
2021/04/29 08:12:28;;;;;;;20.03;11.47;;;;;;;9.99;100.00;99496.47;4981175;28;20207;-73
2021/04/29 08:14:56;;;;;;;17.03;12.27;;;;;;;10.11;100.00;99502.06;4979018;28;20223;-73
2021/04/29 08:17:22;;;;;;;15.43;11.10;;;;;;;10.21;100.00;99500.78;4980170;28;20609;-73
2021/04/29 08:19:48;;;;;;;17.07;11.30;;;;;;;10.34;100.00;99499.38;4974762;28;20196;-73
2021/04/29 08:22:14;;;;;;;16.47;11.13;;;;;;;10.45;100.00;99498.91;4978251;28;20232;-71
2021/04/29 08:24:41;;;;;;;15.83;10.90;;;;;;;10.67;100.00;99500.56;4977552;28;20660;-73
2021/04/29 08:27:07;;;;;;;14.67;10.43;;;;;;;10.83;100.00;99498.13;4980493;28;20292;-73
2021/04/29 08:29:33;;;;;;;14.80;11.40;;;;;;;10.91;100.00;99494.25;4980375;28;20214;-73
2021/04/29 08:32:00;;;;;;;16.67;10.80;;;;;;;10.98;100.00;99495.66;4980456;28;20293;-73
2021/04/29 08:34:26;;;;;;;15.10;10.60;;;;;;;11.08;100.00;99495.22;4985455;28;20222;-72
2021/04/29 08:36:52;;;;;;;15.33;10.50;;;;;;;11.26;100.00;99496.16;4980131;28;20260;-73
2021/04/29 08:39:18;;;;;;;16.27;10.67;;;;;;;11.43;99.04;99504.00;4980325;28;20209;-73
2021/04/29 08:41:45;;;;;;;15.17;10.33;;;;;;;11.59;99.34;99493.72;4979427;28;20787;-74
2021/04/29 08:44:11;;;;;;;17.10;10.30;;;;;;;11.64;98.17;99496.09;4981196;28;20570;-73
2021/04/29 08:46:37;;;;;;;14.30;10.20;;;;;;;11.71;96.79;99494.88;4968533;28;20266;-71
2021/04/29 08:49:03;;;;;;;12.73;10.03;;;;;;;11.83;97.99;99488.19;4983654;28;20676;-73
2021/04/29 08:51:29;;;;;;;16.17;10.30;;;;;;;11.87;97.46;99482.75;4980148;28;20216;-73
2021/04/29 08:53:56;;;;;;;16.50;10.43;;;;;;;11.95;97.55;99494.63;4982115;28;21016;-72
2021/04/29 08:56:25;;;;;;;12.80;9.90;;;;;;;11.91;96.00;99488.72;4980268;28;20226;-74
2021/04/29 08:58:53;;;;;;;15.67;10.10;;;;;;;12.12;97.60;99484.19;4979986;28;20251;-74
2021/04/29 09:01:20;;;;;;;13.20;9.70;;;;;;;12.30;96.83;99485.84;4983474;28;20305;-73
2021/04/29 09:03:46;;;;;;;15.70;10.10;;;;;;;12.50;96.46;99482.22;4987220;28;20197;-73
2021/04/29 09:06:13;;;;;;;14.60;10.57;;;;;;;12.61;95.17;99486.00;4978131;28;20713;-73
2021/04/29 09:08:40;;;;;;;19.10;11.77;;;;;;;12.66;92.76;99484.88;4978215;28;20198;-73
2021/04/29 09:11:08;;;;;;;14.23;10.57;;;;;;;12.70;92.31;99480.31;4977253;28;20221;-73
2021/04/29 09:13:34;;;;;;;13.50;10.07;;;;;;;12.84;93.80;99480.41;4978148;28;20228;-74
2021/04/29 09:16:09;;;;;;;14.70;10.70;;;;;;;12.93;92.17;99484.31;5001375;28;20237;-74
2021/04/29 09:18:36;;;;;;;16.40;10.07;;;;;;;12.98;91.26;99494.50;4972152;28;20605;-72
2021/04/29 09:21:07;;;;;;;13.63;10.37;;;;;;;13.02;90.03;99486.41;4977159;28;20197;-73
2021/04/29 09:23:35;;;;;;;15.60;9.53;;;;;;;13.06;88.60;99489.72;4979068;28;20205;-74
2021/04/29 09:26:05;;;;;;;15.97;9.90;;;;;;;13.10;88.33;99487.78;4976006;28;20228;-71
2021/04/29 09:28:41;;;;;;;13.93;9.47;;;;;;;13.30;89.38;99476.19;4977755;28;20216;-72
2021/04/29 09:31:12;;;;;;;18.27;11.50;;;;;;;13.47;87.76;99485.75;4977952;28;20633;-73
2021/04/29 09:33:40;;;;;;;13.77;9.73;;;;;;;13.68;87.90;99481.91;4975357;28;20305;-73
2021/04/29 09:36:08;;;;;;;17.07;10.60;;;;;;;14.02;88.14;99490.47;4997926;28;20217;-71
2021/04/29 09:38:37;;;;;;;13.43;9.70;;;;;;;14.18;86.66;99490.41;4984354;28;20209;-72
2021/04/29 09:41:05;;;;;;;15.77;10.67;;;;;;;14.36;84.97;99491.94;4977177;28;20202;-73
2021/04/29 09:43:31;;;;;;;14.47;10.13;;;;;;;14.32;83.17;99498.31;4974174;28;20217;-73
2021/04/29 09:46:01;;;;;;;14.30;9.00;;;;;;;14.11;82.85;99494.34;4978154;28;20230;-73
2021/04/29 09:48:36;;;;;;;12.07;9.03;;;;;;;14.24;83.50;99492.66;4976248;28;20206;-73
2021/04/29 09:51:03;;;;;;;17.07;9.73;;;;;;;14.42;84.11;99490.72;4974190;28;20305;-72
2021/04/29 09:53:39;;;;;;;15.90;9.53;;;;;;;14.23;81.46;99487.50;4971793;28;20228;-73
2021/04/29 09:56:09;;;;;;;15.50;9.73;;;;;;;14.39;81.91;99483.06;4977396;28;20313;-72
2021/04/29 09:58:36;;;;;;;13.33;8.87;;;;;;;14.51;80.31;99479.69;4979061;28;20197;-73
2021/04/29 10:01:05;;;;;;;11.03;8.43;;;;;;;14.54;80.34;99476.88;4974066;28;20673;-74
2021/04/29 10:03:32;;;;;;;12.17;9.37;;;;;;;14.74;77.35;99482.72;4980379;28;20194;-72
2021/04/29 10:06:00;;;;;;;11.47;8.50;;;;;;;15.08;77.87;99489.34;4984060;28;20217;-73
2021/04/29 10:08:27;;;;;;;11.07;8.63;;;;;;;15.08;75.39;99486.72;4979880;28;20566;-74
2021/04/29 10:10:55;;;;;;;11.30;8.57;;;;;;;15.12;76.60;99484.72;4982658;28;20204;-72
2021/04/29 10:13:28;;;;;;;13.03;8.03;;;;;;;15.18;75.10;99483.50;4980189;28;20217;-73
2021/04/29 10:15:56;;;;;;;14.40;8.83;;;;;;;15.40;76.90;99481.19;4973949;28;20315;-73
2021/04/29 10:18:23;;;;;;;10.30;7.83;;;;;;;15.51;76.30;99475.25;4974905;28;20197;-73
2021/04/29 10:20:51;;;;;;;11.77;7.73;;;;;;;15.51;75.57;99480.50;4976540;28;20683;-74
2021/04/29 10:23:20;;;;;;;9.77;7.80;;;;;;;15.30;73.39;99485.34;4978725;28;20197;-73
2021/04/29 10:25:51;;;;;;;12.13;8.50;;;;;;;15.40;75.52;99483.81;4981940;28;20685;-72
2021/04/29 10:28:32;;;;;;;12.73;8.30;;;;;;;15.42;72.74;99489.81;4976477;28;20621;-74
2021/04/29 10:30:58;;;;;;;11.00;8.00;;;;;;;15.62;74.19;99488.53;4979096;28;20277;-72
2021/04/29 10:33:24;;;;;;;9.27;7.73;;;;;;;15.74;72.85;99499.19;4975612;28;20218;-73
2021/04/29 10:35:55;;;;;;;9.57;6.80;;;;;;;15.61;72.35;99494.72;4975683;28;20217;-73
2021/04/29 10:38:29;;;;;;;10.60;6.87;;;;;;;15.62;72.72;99490.28;4976370;28;20190;-73
2021/04/29 10:40:56;;;;;;;10.60;6.80;;;;;;;15.76;71.27;99497.31;4976641;28;20201;-72
2021/04/29 10:43:34;;;;;;;10.07;7.20;;;;;;;15.92;72.38;99498.00;4976987;28;20197;-74
2021/04/29 10:46:04;;;;;;;8.93;7.23;;;;;;;16.04;72.31;99505.09;4979754;28;20599;-71
2021/04/29 10:48:31;;;;;;;7.83;6.87;;;;;;;16.09;71.80;99502.13;4985636;28;20214;-74
2021/04/29 10:51:06;;;;;;;12.97;7.80;;;;;;;15.93;72.67;99499.69;4979112;28;20200;-73
2021/04/29 10:53:34;;;;;;;11.83;7.00;;;;;;;15.75;71.55;99506.16;4983657;28;20299;-74
2021/04/29 10:56:02;;;;;;;8.13;6.80;;;;;;;15.52;70.95;99496.16;4980805;28;20225;-74
2021/04/29 10:58:28;;;;;;;10.00;7.50;;;;;;;15.44;71.04;99500.22;4979996;28;20275;-72
2021/04/29 11:01:01;;;;;;;11.07;8.43;;;;;;;15.31;70.53;99498.38;4981516;28;20198;-72
2021/04/29 11:03:29;;;;;;;8.33;6.53;;;;;;;15.08;71.69;99509.50;4981275;28;20209;-73
2021/04/29 11:06:04;;;;;;;7.37;6.07;;;;;;;14.98;72.29;99496.09;4982154;28;20218;-72
2021/04/29 11:08:36;;;;;;;9.03;6.20;;;;;;;15.05;72.32;99513.13;4971775;28;20776;-73
2021/04/29 11:11:02;;;;;;;8.03;6.20;;;;;;;15.21;72.28;99499.88;4987118;28;20315;-72
2021/04/29 11:13:29;;;;;;;9.70;6.53;;;;;;;15.21;71.62;99507.78;4982666;28;20217;-72
2021/04/29 11:15:57;;;;;;;9.60;6.30;;;;;;;15.20;72.26;99502.66;4986912;28;20878;-74
2021/04/29 11:18:24;;;;;;;7.23;5.83;;;;;;;15.30;72.08;99501.09;4984718;28;20335;-73
2021/04/29 11:20:51;;;;;;;8.40;6.70;;;;;;;15.49;72.72;99508.66;4981840;28;20205;-73
2021/04/29 11:23:19;;;;;;;7.37;6.13;;;;;;;15.53;71.01;99510.13;4985561;28;20197;-73
2021/04/29 11:25:46;;;;;;;7.67;6.00;;;;;;;15.67;71.10;99501.34;4979209;28;20222;-73
2021/04/29 11:28:12;;;;;;;8.03;6.43;;;;;;;15.67;70.24;99502.22;4987430;28;20200;-73
2021/04/29 11:30:40;;;;;;;10.13;6.93;;;;;;;15.70;71.08;99504.63;4981386;28;20209;-71
2021/04/29 11:33:08;;;;;;;7.73;5.40;;;;;;;15.81;70.07;99503.13;4984415;28;20270;-73
2021/04/29 11:35:37;;;;;;;6.77;5.00;;;;;;;15.75;68.24;99506.16;4980810;28;20713;-74
2021/04/29 11:38:05;;;;;;;8.10;5.57;;;;;;;15.92;71.45;99500.63;4982672;28;20235;-73
2021/04/29 11:40:33;;;;;;;6.73;5.00;;;;;;;16.28;68.34;99507.84;4979556;28;21490;-74